createdAt,value
2023-05-25T00:00:29.089Z,3.70
2023-05-25T00:02:56.248Z,4.07
2023-05-25T00:05:27.840Z,3.38
2023-05-25T00:07:55.500Z,2.92
2023-05-25T00:10:24.103Z,3.42
2023-05-25T00:12:51.811Z,3.58
2023-05-25T00:17:48.860Z,4.35
2023-05-25T00:20:16.312Z,3.28
2023-05-25T00:22:44.970Z,3.13
2023-05-25T00:25:12.341Z,4.30
2023-05-25T00:27:39.226Z,3.60
2023-05-25T00:32:33.819Z,3.58
2023-05-25T00:37:27.371Z,3.60
2023-05-25T00:39:54.169Z,3.88
2023-05-25T00:42:21.449Z,4.60
2023-05-25T00:44:48.674Z,4.15
2023-05-25T00:47:17.364Z,4.35
2023-05-25T00:49:44.387Z,4.13
2023-05-25T00:52:13.119Z,3.72
2023-05-25T00:54:39.942Z,5.55
2023-05-25T00:57:07.922Z,4.55
2023-05-25T00:59:41.443Z,5.20
2023-05-25T01:02:11.972Z,5.53
2023-05-25T01:04:42.345Z,5.32
2023-05-25T01:07:10.841Z,4.63
2023-05-25T01:09:41.007Z,4.28
2023-05-25T01:12:09.290Z,5.40
2023-05-25T01:14:38.458Z,5.88
2023-05-25T01:17:06.619Z,6.28
2023-05-25T01:19:35.884Z,5.65
2023-05-25T01:22:05.276Z,5.63
2023-05-25T01:24:41.294Z,4.80
2023-05-25T01:27:32.505Z,5.55
2023-05-25T01:30:01.261Z,4.90
2023-05-25T01:32:28.892Z,5.10
2023-05-25T01:34:57.871Z,5.18
2023-05-25T01:37:26.423Z,4.65
2023-05-25T01:39:53.272Z,4.90
2023-05-25T01:42:20.405Z,6.32
2023-05-25T01:44:47.329Z,5.00
2023-05-25T01:49:59.999Z,5.88
2023-05-25T01:52:30.942Z,5.22
2023-05-25T01:55:03.048Z,6.70
2023-05-25T01:57:33.402Z,6.38
2023-05-25T02:00:03.124Z,6.28
2023-05-25T02:02:43.769Z,5.80
2023-05-25T02:05:11.548Z,5.65
2023-05-25T02:07:38.934Z,5.65
2023-05-25T02:10:06.548Z,5.82
2023-05-25T02:12:33.769Z,6.72
2023-05-25T02:15:00.621Z,6.43
2023-05-25T02:17:28.082Z,6.05
2023-05-25T02:19:55.060Z,5.82
2023-05-25T02:24:49.404Z,4.82
2023-05-25T02:27:16.276Z,7.28
2023-05-25T02:29:43.761Z,6.18
2023-05-25T02:32:10.577Z,6.18
2023-05-25T02:34:37.452Z,6.65
2023-05-25T02:37:04.406Z,6.00
2023-05-25T02:41:59.772Z,6.80
2023-05-25T02:44:27.153Z,7.18
2023-05-25T02:46:55.229Z,6.80
2023-05-25T02:49:23.287Z,6.18
2023-05-25T02:51:50.432Z,6.95
2023-05-25T02:56:44.713Z,7.00
2023-05-25T02:59:14.271Z,6.93
2023-05-25T03:01:42.038Z,6.93
2023-05-25T03:04:08.859Z,6.90
2023-05-25T03:06:37.977Z,6.85
2023-05-25T03:09:12.434Z,7.10
2023-05-25T03:11:40.338Z,7.95
2023-05-25T03:14:10.853Z,7.82
2023-05-25T03:16:39.055Z,7.95
2023-05-25T03:19:07.403Z,8.35
2023-05-25T03:21:36.203Z,8.38
2023-05-25T03:24:03.166Z,8.68
2023-05-25T03:28:57.863Z,7.50
2023-05-25T03:31:24.856Z,7.43
2023-05-25T03:33:51.977Z,8.60
2023-05-25T03:36:22.308Z,7.78
2023-05-25T03:38:49.736Z,8.02
2023-05-25T03:43:43.324Z,7.22
2023-05-25T03:46:11.783Z,9.13
2023-05-25T03:48:38.997Z,7.85
2023-05-25T03:51:06.491Z,8.50
2023-05-25T03:53:34.013Z,6.93
2023-05-25T03:56:01.068Z,8.13
2023-05-25T03:58:27.879Z,8.40
2023-05-25T04:00:56.145Z,7.90
2023-05-25T04:03:23.259Z,9.27
2023-05-25T04:05:50.245Z,7.93
2023-05-25T04:08:20.324Z,7.65
2023-05-25T04:10:47.172Z,9.07
2023-05-25T04:13:14.412Z,8.88
2023-05-25T04:15:41.329Z,9.07
2023-05-25T04:18:20.754Z,6.65
2023-05-25T04:20:48.712Z,7.95
2023-05-25T04:23:17.483Z,9.75
2023-05-25T04:25:45.540Z,8.20
2023-05-25T04:28:12.641Z,7.43
2023-05-25T04:30:59.730Z,8.68
2023-05-25T04:33:49.834Z,8.25
2023-05-25T04:36:32.718Z,8.23
2023-05-25T04:39:04.483Z,8.27
2023-05-25T04:41:36.193Z,8.32
2023-05-25T04:44:09.692Z,9.02
2023-05-25T04:46:44.672Z,8.35
2023-05-25T04:49:18.948Z,8.15
2023-05-25T04:51:45.895Z,7.82
2023-05-25T04:54:12.772Z,8.63
2023-05-25T04:56:40.345Z,7.57
2023-05-25T04:59:08.535Z,8.55
2023-05-25T05:01:40.762Z,8.77
2023-05-25T05:04:08.945Z,8.07
2023-05-25T05:06:39.149Z,8.43
2023-05-25T05:09:07.135Z,7.93
2023-05-25T05:11:34.026Z,9.32
2023-05-25T05:16:33.711Z,7.28
2023-05-25T05:19:04.627Z,8.07
2023-05-25T05:21:32.468Z,7.65
2023-05-25T05:24:01.085Z,7.93
2023-05-25T05:26:28.738Z,7.65
2023-05-25T05:28:55.993Z,6.43
2023-05-25T05:31:25.367Z,7.30
2023-05-25T05:33:52.589Z,7.85
2023-05-25T05:36:19.477Z,7.35
2023-05-25T05:41:14.338Z,7.50
2023-05-25T05:43:43.818Z,7.03
2023-05-25T05:46:10.934Z,5.93
2023-05-25T05:48:39.825Z,6.57
2023-05-25T05:53:35.302Z,6.55
2023-05-25T05:56:03.208Z,6.68
2023-05-25T05:58:32.271Z,6.13
2023-05-25T06:01:00.020Z,6.28
2023-05-25T06:03:30.117Z,5.72
2023-05-25T06:05:57.022Z,6.60
2023-05-25T06:08:24.700Z,5.57
2023-05-25T06:10:51.949Z,8.00
2023-05-25T06:15:46.231Z,5.53
2023-05-25T06:18:18.045Z,4.78
2023-05-25T06:23:14.000Z,5.60
2023-05-25T06:25:41.290Z,5.20
2023-05-25T06:28:08.138Z,4.53
2023-05-25T06:35:30.228Z,4.18
2023-05-25T06:37:57.488Z,4.43
2023-05-25T06:42:51.308Z,4.70
2023-05-25T06:45:37.573Z,5.10
2023-05-25T06:48:05.227Z,5.50
2023-05-25T06:50:32.322Z,5.97
2023-05-25T06:55:27.352Z,5.78
2023-05-25T06:57:54.125Z,5.45
2023-05-25T07:02:48.389Z,6.72
2023-05-25T07:05:15.606Z,5.80
2023-05-25T07:07:42.458Z,5.38
2023-05-25T07:12:36.185Z,6.15
2023-05-25T07:15:03.028Z,6.57
2023-05-25T07:19:58.337Z,6.40
2023-05-25T07:24:52.562Z,5.90
2023-05-25T07:29:46.639Z,5.23
2023-05-25T07:34:40.096Z,6.50
2023-05-25T07:39:33.589Z,6.50
2023-05-25T07:44:30.023Z,5.90
2023-05-25T07:46:56.901Z,5.38
2023-05-25T07:49:23.721Z,5.38
2023-05-25T07:51:50.771Z,5.10
2023-05-25T07:54:17.582Z,6.97
2023-05-25T07:59:11.221Z,5.13
2023-05-25T08:01:39.046Z,4.63
2023-05-25T08:04:06.249Z,5.68
2023-05-25T08:06:34.244Z,5.03
2023-05-25T08:09:02.991Z,4.80
2023-05-25T08:11:31.183Z,5.18
2023-05-25T08:13:58.012Z,5.15
2023-05-25T08:16:24.861Z,4.78
2023-05-25T08:18:52.508Z,5.30
2023-05-25T08:21:19.354Z,4.47
2023-05-25T08:23:46.320Z,3.65
2023-05-25T08:28:43.066Z,4.43
2023-05-25T08:31:10.054Z,4.30
2023-05-25T08:33:37.909Z,3.92
2023-05-25T08:36:05.417Z,4.07
2023-05-25T08:38:33.139Z,4.43
2023-05-25T08:41:07.151Z,3.83
2023-05-25T08:43:34.572Z,3.97
2023-05-25T08:46:06.764Z,3.15
2023-05-25T08:48:42.250Z,3.50
2023-05-25T08:51:12.708Z,3.80
2023-05-25T08:53:41.251Z,4.28
2023-05-25T08:56:18.409Z,4.72
2023-05-25T08:59:07.632Z,4.00
2023-05-25T09:01:43.296Z,4.90
2023-05-25T09:04:14.027Z,4.00
2023-05-25T09:06:41.152Z,3.33
2023-05-25T09:09:09.502Z,3.03
2023-05-25T09:11:39.643Z,4.13
2023-05-25T09:14:11.414Z,3.55
2023-05-25T09:16:38.637Z,4.18
2023-05-25T09:19:05.763Z,3.03
2023-05-25T09:21:32.603Z,3.78
2023-05-25T09:24:00.573Z,3.80
2023-05-25T09:26:27.961Z,3.88
2023-05-25T09:28:55.357Z,3.80
2023-05-25T09:31:24.695Z,3.45
2023-05-25T09:33:55.432Z,3.15
2023-05-25T09:36:23.325Z,3.25
2023-05-25T09:38:52.563Z,3.80
2023-05-25T09:41:19.986Z,4.03
2023-05-25T09:46:16.186Z,4.07
2023-05-25T09:48:43.579Z,3.50
2023-05-25T09:51:11.859Z,3.13
2023-05-25T09:53:38.710Z,3.17
2023-05-25T09:56:05.936Z,3.83
2023-05-25T09:58:33.040Z,3.30
2023-05-25T10:01:00.885Z,3.17
2023-05-25T10:03:27.902Z,3.30
2023-05-25T10:05:55.024Z,3.30
2023-05-25T10:08:25.703Z,3.60
2023-05-25T10:10:53.964Z,3.40
2023-05-25T10:13:25.000Z,3.90
2023-05-25T10:15:54.765Z,4.32
2023-05-25T10:18:26.825Z,3.22
2023-05-25T10:21:02.774Z,3.80
2023-05-25T10:23:41.961Z,3.45
2023-05-25T10:26:09.913Z,3.38
2023-05-25T10:28:38.036Z,3.58
2023-05-25T10:31:05.799Z,3.75
2023-05-25T10:33:33.721Z,3.60
2023-05-25T10:38:36.613Z,3.78
2023-05-25T10:41:05.886Z,3.05
2023-05-25T10:43:32.818Z,3.00
2023-05-25T10:45:59.770Z,2.65
2023-05-25T10:48:37.413Z,3.25
2023-05-25T10:51:04.589Z,3.58
2023-05-25T10:53:31.471Z,3.80
2023-05-25T10:56:06.354Z,3.67
2023-05-25T10:58:34.086Z,3.10
2023-05-25T11:01:06.939Z,3.15
2023-05-25T11:04:17.355Z,3.65
2023-05-25T11:06:47.171Z,2.90
2023-05-25T11:09:27.475Z,3.10
2023-05-25T11:11:56.081Z,3.42
2023-05-25T11:14:23.744Z,3.45
2023-05-25T11:17:14.423Z,3.00
2023-05-25T11:19:52.317Z,3.08
2023-05-25T11:22:23.661Z,3.13
2023-05-25T11:24:52.605Z,3.05
2023-05-25T11:27:24.032Z,2.95
2023-05-25T11:29:52.812Z,2.78
2023-05-25T11:32:21.099Z,3.55
2023-05-25T11:34:48.408Z,2.78
2023-05-25T11:37:24.740Z,3.58
2023-05-25T11:39:52.428Z,3.80
2023-05-25T11:42:24.724Z,3.15
2023-05-25T11:44:51.966Z,3.55
2023-05-25T11:47:23.080Z,3.50
2023-05-25T11:49:50.247Z,3.47
2023-05-25T11:52:19.063Z,3.65
2023-05-25T11:54:46.575Z,3.38
2023-05-25T11:57:22.559Z,3.42
2023-05-25T11:59:53.696Z,3.45
2023-05-25T12:02:21.592Z,2.92
2023-05-25T12:05:01.322Z,3.53
2023-05-25T12:07:30.131Z,3.40
2023-05-25T12:10:07.080Z,3.55
2023-05-25T12:12:44.670Z,3.08
2023-05-25T12:15:13.903Z,3.75
2023-05-25T12:17:42.977Z,4.07
2023-05-25T12:20:15.176Z,3.15
2023-05-25T12:22:43.130Z,2.70
2023-05-25T12:25:11.763Z,3.63
2023-05-25T12:27:40.124Z,3.63
2023-05-25T12:30:09.369Z,3.40
2023-05-25T12:32:54.582Z,3.50
2023-05-25T12:35:21.572Z,4.03
2023-05-25T12:37:48.468Z,4.30
2023-05-25T12:40:24.505Z,3.10
2023-05-25T12:42:57.924Z,3.25
2023-05-25T12:45:24.909Z,3.28
2023-05-25T12:47:52.365Z,3.53
2023-05-25T12:50:19.876Z,3.13
2023-05-25T12:52:47.735Z,3.83
2023-05-25T12:55:27.849Z,3.85
2023-05-25T12:58:08.069Z,3.72
2023-05-25T13:00:36.459Z,3.85
2023-05-25T13:03:04.940Z,2.83
2023-05-25T13:05:34.305Z,3.85
2023-05-25T13:08:02.935Z,3.85
2023-05-25T13:10:32.804Z,3.83
2023-05-25T13:13:00.779Z,4.20
2023-05-25T13:15:28.482Z,3.33
2023-05-25T13:17:58.155Z,3.92
2023-05-25T13:20:27.310Z,3.58
2023-05-25T13:22:57.754Z,4.05
2023-05-25T13:25:27.449Z,4.10
2023-05-25T13:27:55.065Z,3.30
2023-05-25T13:30:22.415Z,3.65
2023-05-25T13:32:51.389Z,3.50
2023-05-25T13:35:36.956Z,4.05
2023-05-25T13:38:03.974Z,3.72
2023-05-25T13:40:30.749Z,3.55
2023-05-25T13:42:57.543Z,3.63
2023-05-25T13:45:24.328Z,3.40
2023-05-25T13:47:51.486Z,3.47
2023-05-25T13:50:18.646Z,3.88
2023-05-25T13:52:45.475Z,3.25
2023-05-25T13:55:12.324Z,4.25
2023-05-25T13:57:39.121Z,3.70
2023-05-25T14:00:07.518Z,3.55
2023-05-25T14:02:35.318Z,3.92
2023-05-25T14:05:02.480Z,3.63
2023-05-25T14:07:29.238Z,4.00
2023-05-25T14:09:57.508Z,4.03
2023-05-25T14:12:25.004Z,3.83
2023-05-25T14:14:51.776Z,4.05
2023-05-25T14:17:18.723Z,3.58
2023-05-25T14:19:45.685Z,4.38
2023-05-25T14:22:14.427Z,3.83
2023-05-25T14:24:41.897Z,3.78
2023-05-25T14:27:08.899Z,3.75
2023-05-25T14:29:35.917Z,3.83
2023-05-25T14:32:02.875Z,3.05
2023-05-25T14:34:29.874Z,3.67
2023-05-25T14:36:56.968Z,4.28
2023-05-25T14:39:23.822Z,4.30
2023-05-25T14:41:50.957Z,4.70
2023-05-25T14:44:17.757Z,4.55
2023-05-25T14:46:44.684Z,4.30
2023-05-25T14:49:11.716Z,4.40
2023-05-25T14:51:38.699Z,4.22
2023-05-25T14:54:07.849Z,4.07
2023-05-25T14:56:35.145Z,4.18
2023-05-25T14:59:02.129Z,4.30
2023-05-25T15:01:29.372Z,4.45
2023-05-25T15:03:57.013Z,4.07
2023-05-25T15:06:24.000Z,3.67
2023-05-25T15:08:51.030Z,4.55
2023-05-25T15:11:18.226Z,3.90
2023-05-25T15:13:45.677Z,4.75
2023-05-25T15:16:16.820Z,4.82
2023-05-25T15:18:44.235Z,4.38
2023-05-25T15:21:11.413Z,4.20
2023-05-25T15:23:38.948Z,4.72
2023-05-25T15:26:07.959Z,5.07
2023-05-25T15:28:35.046Z,3.92
2023-05-25T15:31:03.293Z,4.63
2023-05-25T15:33:47.135Z,4.18
2023-05-25T15:36:18.201Z,4.80
2023-05-25T15:38:48.807Z,4.25
2023-05-25T15:41:17.203Z,4.78
2023-05-25T15:44:01.471Z,5.47
2023-05-25T15:46:28.862Z,4.72
2023-05-25T15:48:56.121Z,5.20
2023-05-25T15:51:23.007Z,5.15
2023-05-25T15:53:49.852Z,4.72
2023-05-25T15:56:16.733Z,4.35
2023-05-25T15:58:46.969Z,4.25
2023-05-25T16:01:14.069Z,4.65
2023-05-25T16:03:42.913Z,5.07
2023-05-25T16:06:10.313Z,5.32
2023-05-25T16:08:37.171Z,4.68
2023-05-25T16:11:04.011Z,4.93
2023-05-25T16:13:30.790Z,4.93
2023-05-25T16:15:57.691Z,5.25
2023-05-25T16:18:24.684Z,4.22
2023-05-25T16:20:55.924Z,5.55
2023-05-25T16:23:23.711Z,5.93
2023-05-25T16:25:50.835Z,4.97
2023-05-25T16:28:17.646Z,5.60
2023-05-25T16:30:44.461Z,5.05
2023-05-25T16:33:11.393Z,4.82
2023-05-25T16:35:38.182Z,5.70
2023-05-25T16:38:05.079Z,4.93
2023-05-25T16:40:33.371Z,5.50
2023-05-25T16:43:00.327Z,5.75
2023-05-25T16:45:27.238Z,6.20
2023-05-25T16:47:54.053Z,6.03
2023-05-25T16:50:21.465Z,5.40
2023-05-25T16:52:48.343Z,6.28
2023-05-25T16:55:16.072Z,5.63
2023-05-25T16:57:42.919Z,5.50
2023-05-25T17:00:10.384Z,5.13
2023-05-25T17:02:37.322Z,4.97
2023-05-25T17:05:06.507Z,5.53
2023-05-25T17:07:33.769Z,5.93
2023-05-25T17:10:00.733Z,4.72
2023-05-25T17:12:27.802Z,4.97
2023-05-25T17:14:54.576Z,5.00
2023-05-25T17:17:25.481Z,5.10
2023-05-25T17:19:54.144Z,5.00
2023-05-25T17:22:21.000Z,4.63
2023-05-25T17:24:47.788Z,5.53
2023-05-25T17:27:14.538Z,5.72
2023-05-25T17:29:42.001Z,5.15
2023-05-25T17:32:08.831Z,5.03
2023-05-25T17:34:35.873Z,4.97
2023-05-25T17:37:02.858Z,5.45
2023-05-25T17:39:29.632Z,5.32
2023-05-25T17:41:56.428Z,5.50
2023-05-25T17:44:23.321Z,5.20
2023-05-25T17:46:50.091Z,5.65
2023-05-25T17:49:16.895Z,4.72
2023-05-25T17:51:43.656Z,4.78
2023-05-25T17:54:15.269Z,4.53
2023-05-25T17:56:42.244Z,4.57
2023-05-25T17:59:09.664Z,4.15
2023-05-25T18:01:36.625Z,5.13
2023-05-25T18:04:03.996Z,4.60
2023-05-25T18:06:30.923Z,4.75
2023-05-25T18:08:57.774Z,4.10
2023-05-25T18:11:24.596Z,4.35
2023-05-25T18:13:51.446Z,5.40
2023-05-25T18:16:18.430Z,4.18
2023-05-25T18:18:45.646Z,3.90
2023-05-25T18:21:12.705Z,4.25
2023-05-25T18:23:39.503Z,4.45
2023-05-25T18:26:06.363Z,3.97
2023-05-25T18:28:33.283Z,4.90
2023-05-25T18:31:00.275Z,4.07
2023-05-25T18:33:27.230Z,4.18
2023-05-25T18:35:54.012Z,4.60
2023-05-25T18:38:20.813Z,4.35
2023-05-25T18:40:47.618Z,5.32
2023-05-25T18:43:14.451Z,3.75
2023-05-25T18:45:41.255Z,4.13
2023-05-25T18:48:08.139Z,5.30
2023-05-25T18:50:35.928Z,4.68
2023-05-25T18:53:03.132Z,4.90
2023-05-25T18:55:30.011Z,4.70
2023-05-25T18:57:57.358Z,4.75
2023-05-25T19:00:24.205Z,4.60
2023-05-25T19:02:51.051Z,4.72
2023-05-25T19:05:19.829Z,5.10
2023-05-25T19:07:55.339Z,5.30
2023-05-25T19:10:26.391Z,4.90
2023-05-25T19:12:53.184Z,4.57
2023-05-25T19:15:20.136Z,4.90
2023-05-25T19:17:47.216Z,5.50
2023-05-25T19:20:14.510Z,5.05
2023-05-25T19:22:41.791Z,5.20
2023-05-25T19:25:08.780Z,4.82
2023-05-25T19:27:35.694Z,5.53
2023-05-25T19:30:02.538Z,5.13
2023-05-25T19:32:29.485Z,4.70
2023-05-25T19:34:56.351Z,5.00
2023-05-25T19:37:23.271Z,5.10
2023-05-25T19:39:50.130Z,5.03
2023-05-25T19:42:16.977Z,5.00
2023-05-25T19:44:45.379Z,4.93
2023-05-25T19:47:12.240Z,5.75
2023-05-25T19:49:39.093Z,4.88
2023-05-25T19:52:06.067Z,4.82
2023-05-25T19:54:32.946Z,4.80
2023-05-25T19:57:00.204Z,4.32
2023-05-25T19:59:28.902Z,4.60
2023-05-25T20:01:56.687Z,4.22
2023-05-25T20:04:23.698Z,4.60
2023-05-25T20:06:52.522Z,4.93
2023-05-25T20:09:19.626Z,4.88
2023-05-25T20:11:47.204Z,4.30
2023-05-25T20:14:14.001Z,4.75
2023-05-25T20:16:41.696Z,5.25
2023-05-25T20:19:10.955Z,4.72
2023-05-25T20:21:37.906Z,5.25
2023-05-25T20:24:04.915Z,4.32
2023-05-25T20:26:32.020Z,4.68
2023-05-25T20:28:58.857Z,4.63
2023-05-25T20:33:52.515Z,4.55
2023-05-25T20:38:47.431Z,4.72
2023-05-25T20:41:14.265Z,5.10
2023-05-25T20:43:41.377Z,5.20
2023-05-25T20:46:10.110Z,3.97
2023-05-25T20:48:38.797Z,4.53
2023-05-25T20:51:05.889Z,4.60
2023-05-25T20:53:32.676Z,4.80
2023-05-25T20:58:28.770Z,5.35
2023-05-25T21:03:22.394Z,4.53
2023-05-25T21:05:49.341Z,5.30
2023-05-25T21:08:16.273Z,4.93
2023-05-25T21:10:43.126Z,5.65
2023-05-25T21:15:36.758Z,5.22
2023-05-25T21:18:05.490Z,5.47
2023-05-25T21:20:32.909Z,5.05
2023-05-25T21:23:00.657Z,5.40
2023-05-25T21:25:27.533Z,5.57
2023-05-25T21:27:56.840Z,5.15
2023-05-25T21:30:24.340Z,5.95
2023-05-25T21:32:51.344Z,5.32
2023-05-25T21:35:18.296Z,5.75
2023-05-25T21:37:45.509Z,5.68
2023-05-25T21:40:12.770Z,6.00
2023-05-25T21:42:39.582Z,6.03
2023-05-25T21:47:33.329Z,5.15
2023-05-25T21:52:27.113Z,6.63
2023-05-25T21:57:20.683Z,6.88
2023-05-25T22:02:14.234Z,6.20
2023-05-25T22:07:07.725Z,7.03
2023-05-25T22:09:34.523Z,6.57
2023-05-25T22:14:29.065Z,7.30
2023-05-25T22:19:22.842Z,6.95
2023-05-25T22:24:16.371Z,8.18
2023-05-25T22:29:11.840Z,7.32
2023-05-25T22:31:38.839Z,6.43
2023-05-25T22:34:05.863Z,6.88
2023-05-25T22:38:59.538Z,6.32
2023-05-25T22:43:53.309Z,7.30
2023-05-25T22:48:47.667Z,8.10
2023-05-25T22:53:41.541Z,7.38
2023-05-25T22:56:08.416Z,6.10
2023-05-25T23:01:02.061Z,6.93
2023-05-25T23:05:57.116Z,8.20
2023-05-25T23:08:23.956Z,7.82
2023-05-25T23:13:19.146Z,8.02
2023-05-25T23:15:47.419Z,7.40
2023-05-25T23:18:14.363Z,6.97
2023-05-25T23:23:08.936Z,7.90
2023-05-25T23:28:03.176Z,7.03
2023-05-25T23:30:30.059Z,8.15
2023-05-25T23:32:57.010Z,8.13
2023-05-25T23:37:51.958Z,7.18
2023-05-25T23:40:19.007Z,7.47
2023-05-25T23:42:45.979Z,7.28
2023-05-25T23:45:13.757Z,8.55
2023-05-25T23:47:40.952Z,6.72
2023-05-25T23:50:08.144Z,7.18
2023-05-25T23:52:35.277Z,7.15
2023-05-25T23:55:02.425Z,7.22
2023-05-25T23:57:29.449Z,8.05
2023-05-25T23:59:56.318Z,7.28
